^^
Paulen-Weather Station Historical Data
Daily Summary for February 08, 2022 Units:  Metric    English   Both
Daily Weekly Monthly Yearly Custom
  High: Low: Average:
Temperature: 7 °C 5 °C 6.4 °C
Dew Point: 7 °C 5 °C 6.1 °C
Humidity: 98% 95% 97%
Wind Speed: 44km/h 20km/h 30.4km/h
Wind Gust: 35km/h - -
Wind- - WSW
Pressure: 1006.94 hPa 1002.57 hPa -
Precipitation: 1.6 mm    
Historical Graphs
 
 
Tabular Data for February 08, 2022
Time Temperature Dew Point Pressure Wind Wind Speed Wind Gust Humidity Rainfall Rate (Hourly) solar
00:04 5 °C 5 °C 1006.94 hPa NNW 29 km/h 24 km/h 95% 0.2 mm 0 W/m2
00:09 5 °C 5 °C 1006.81 hPa NNW 34 km/h 22 km/h 96% 0.41 mm 0 W/m2
00:14 5 °C 5 °C 1006.81 hPa N 26 km/h 19 km/h 96% 0.41 mm 0 W/m2
00:19 5 °C 5 °C 1006.57 hPa N 34 km/h 24 km/h 96% 0.41 mm 0 W/m2
00:24 5 °C 5 °C 1006.4 hPa N 30 km/h 25 km/h 97% 0.61 mm 0 W/m2
00:29 6 °C 5 °C 1006.23 hPa NW 38 km/h 32 km/h 97% 0.79 mm 0 W/m2
00:34 6 °C 5 °C 1006.1 hPa N 36 km/h 30 km/h 97% 0.79 mm 0 W/m2
00:39 6 °C 5 °C 1005.86 hPa NNE 44 km/h 35 km/h 97% 0.99 mm 0 W/m2
00:44 6 °C 5 °C 1005.72 hPa N 43 km/h 30 km/h 97% 0.99 mm 0 W/m2
00:49 6 °C 5 °C 1005.49 hPa NNE 42 km/h 32 km/h 97% 0.99 mm 0 W/m2
00:54 6 °C 6 °C 1005.25 hPa NNE 32 km/h 29 km/h 97% 0.99 mm 0 W/m2
00:59 6 °C 6 °C 1005.18 hPa NNE 40 km/h 31 km/h 97% 0.99 mm 0 W/m2
01:04 6 °C 6 °C 1005.01 hPa NNE 41 km/h 34 km/h 97% 0.99 mm 0 W/m2
01:09 6 °C 6 °C 1004.94 hPa NNW 42 km/h 31 km/h 97% 0.79 mm 0 W/m2
01:14 6 °C 6 °C 1004.98 hPa N 37 km/h 30 km/h 97% 0.61 mm 0 W/m2
01:19 6 °C 6 °C 1004.91 hPa NNE 40 km/h 34 km/h 97% 0.61 mm 0 W/m2
01:24 6 °C 6 °C 1004.88 hPa NNW 35 km/h 33 km/h 97% 0.61 mm 0 W/m2
01:29 6 °C 6 °C 1004.84 hPa NNW 35 km/h 28 km/h 97% 0.41 mm 0 W/m2
01:34 6 °C 6 °C 1004.74 hPa N 29 km/h 23 km/h 97% 0.2 mm 0 W/m2
01:39 6 °C 6 °C 1004.81 hPa N 34 km/h 23 km/h 97% 0.2 mm 0 W/m2
01:44 7 °C 6 °C 1004.78 hPa NW 28 km/h 21 km/h 97% 0 mm 0 W/m2
01:49 7 °C 6 °C 1004.71 hPa N 29 km/h 22 km/h 97% 0 mm 0 W/m2
01:54 7 °C 6 °C 1004.67 hPa NNW 32 km/h 23 km/h 97% 0.2 mm 0 W/m2
01:59 7 °C 6 °C 1004.44 hPa NNW 27 km/h 18 km/h 97% 0.2 mm 0 W/m2
02:04 7 °C 6 °C 1004.34 hPa NNW 23 km/h 17 km/h 97% 0.2 mm 0 W/m2
02:09 7 °C 6 °C 1004.23 hPa N 24 km/h 17 km/h 97% 0.2 mm 0 W/m2
02:14 7 °C 6 °C 1004.17 hPa NNW 24 km/h 17 km/h 97% 0.2 mm 0 W/m2
02:19 7 °C 6 °C 1004.13 hPa NW 26 km/h 22 km/h 97% 0.41 mm 0 W/m2
02:24 7 °C 6 °C 1004.1 hPa NW 24 km/h 15 km/h 97% 0.41 mm 0 W/m2
02:29 7 °C 6 °C 1004.06 hPa NW 25 km/h 13 km/h 97% 0.61 mm 0 W/m2
02:34 7 °C 7 °C 1003.93 hPa NW 24 km/h 16 km/h 97% 0.61 mm 0 W/m2
02:39 7 °C 7 °C 1003.83 hPa NNW 25 km/h 19 km/h 98% 0.61 mm 0 W/m2
02:44 7 °C 7 °C 1003.76 hPa NW 27 km/h 19 km/h 97% 0.61 mm 0 W/m2
02:49 7 °C 7 °C 1003.56 hPa NW 21 km/h 18 km/h 97% 0.61 mm 0 W/m2
02:54 7 °C 7 °C 1003.32 hPa NW 23 km/h 19 km/h 97% 0.41 mm 0 W/m2
02:59 7 °C 7 °C 1003.29 hPa NNW 20 km/h 15 km/h 97% 0.41 mm 0 W/m2
03:04 7 °C 7 °C 1003.32 hPa WNW 23 km/h 14 km/h 97% 0.41 mm 0 W/m2
03:09 7 °C 7 °C 1003.08 hPa NW 24 km/h 14 km/h 97% 0.41 mm 0 W/m2
03:14 7 °C 7 °C 1002.98 hPa NW 24 km/h 14 km/h 97% 0.41 mm 0 W/m2
03:19 7 °C 7 °C 1002.91 hPa NW 25 km/h 16 km/h 97% 0.41 mm 0 W/m2
03:24 7 °C 7 °C 1002.71 hPa NW 31 km/h 18 km/h 97% 0.2 mm 0 W/m2
03:29 7 °C 7 °C 1002.61 hPa NW 32 km/h 19 km/h 97% 0.2 mm 0 W/m2
03:34 7 °C 7 °C 1002.57 hPa NW 26 km/h 14 km/h 97% 0 mm 0 W/m2
Compliments of Weather Underground - 2 mb